createdAt,value
2017-08-10T00:01:43.168Z,8.60
2017-08-10T00:04:10.722Z,9.27
2017-08-10T00:06:38.165Z,9.10
2017-08-10T00:09:05.597Z,8.90
2017-08-10T00:11:33.812Z,8.23
2017-08-10T00:14:01.246Z,8.37
2017-08-10T00:16:28.697Z,7.70
2017-08-10T00:18:56.881Z,8.13
2017-08-10T00:21:24.319Z,9.20
2017-08-10T00:23:52.512Z,8.03
2017-08-10T00:26:19.949Z,9.10
2017-08-10T00:28:48.148Z,10.10
2017-08-10T00:31:15.613Z,9.23
2017-08-10T00:33:43.032Z,8.83
2017-08-10T00:36:11.249Z,10.40
2017-08-10T00:38:38.697Z,11.23
2017-08-10T00:41:06.137Z,10.27
2017-08-10T00:43:33.564Z,10.00
2017-08-10T00:46:01.764Z,10.20
2017-08-10T00:48:29.194Z,10.17
2017-08-10T00:50:56.630Z,10.57
2017-08-10T00:53:24.068Z,10.10
2017-08-10T00:55:51.497Z,10.13
2017-08-10T00:58:18.957Z,10.30
2017-08-10T01:00:46.427Z,10.20
2017-08-10T01:03:13.884Z,9.23
2017-08-10T01:05:41.300Z,9.20
2017-08-10T01:08:08.738Z,9.17
2017-08-10T01:10:36.925Z,8.63
2017-08-10T01:13:04.359Z,8.57
2017-08-10T01:15:32.549Z,9.47
2017-08-10T01:17:59.979Z,9.07
2017-08-10T01:20:28.176Z,9.00
2017-08-10T01:22:55.621Z,9.23
2017-08-10T01:25:23.810Z,9.20
2017-08-10T01:27:51.228Z,9.70
2017-08-10T01:30:19.425Z,9.40
2017-08-10T01:32:46.944Z,10.23
2017-08-10T01:35:14.384Z,9.83
2017-08-10T01:37:41.797Z,9.90
2017-08-10T01:40:09.219Z,9.73
2017-08-10T01:42:36.652Z,9.80
2017-08-10T01:45:04.107Z,9.97
2017-08-10T01:47:31.526Z,10.03
2017-08-10T01:49:58.952Z,9.87
2017-08-10T01:52:27.139Z,9.97
2017-08-10T01:54:54.563Z,11.07
2017-08-10T01:57:22.010Z,10.33
2017-08-10T01:59:49.432Z,10.40
2017-08-10T02:02:16.861Z,10.07
2017-08-10T02:04:45.061Z,9.50
2017-08-10T02:07:12.489Z,9.47
2017-08-10T02:09:39.917Z,9.70
2017-08-10T02:12:07.332Z,9.73
2017-08-10T02:14:34.765Z,10.00
2017-08-10T02:17:02.196Z,10.00
2017-08-10T02:19:30.388Z,9.67
2017-08-10T02:21:58.586Z,10.17
2017-08-10T02:24:26.008Z,10.03
2017-08-10T02:26:53.437Z,10.03
2017-08-10T02:29:20.865Z,10.83
2017-08-10T02:31:48.300Z,10.50
2017-08-10T02:34:15.724Z,10.20
2017-08-10T02:36:43.935Z,10.40
2017-08-10T02:39:11.360Z,11.30
2017-08-10T02:41:38.815Z,10.90
2017-08-10T02:44:07.021Z,10.37
2017-08-10T02:46:34.445Z,11.27
2017-08-10T02:49:02.689Z,10.63
2017-08-10T02:51:30.089Z,11.30
2017-08-10T02:53:57.516Z,11.63
2017-08-10T02:56:24.960Z,11.80
2017-08-10T02:58:52.398Z,11.83
2017-08-10T03:01:19.816Z,11.47
2017-08-10T03:03:47.340Z,11.40
2017-08-10T03:06:14.770Z,11.20
2017-08-10T03:08:42.189Z,11.83
2017-08-10T03:11:09.626Z,13.07
2017-08-10T03:13:37.803Z,12.77
2017-08-10T03:16:05.285Z,13.33
2017-08-10T03:18:32.707Z,12.87
2017-08-10T03:21:00.904Z,12.50
2017-08-10T03:23:28.349Z,11.87
2017-08-10T03:25:56.532Z,12.40
2017-08-10T03:28:23.959Z,12.00
2017-08-10T03:30:52.177Z,11.73
2017-08-10T03:33:19.588Z,11.90
2017-08-10T03:35:47.804Z,11.77
2017-08-10T03:38:15.269Z,11.80
2017-08-10T03:40:42.708Z,11.87
2017-08-10T03:43:10.136Z,12.07
2017-08-10T03:45:37.628Z,11.30
2017-08-10T03:48:05.081Z,10.83
2017-08-10T03:50:32.532Z,10.87
2017-08-10T03:53:00.764Z,11.00
2017-08-10T03:55:28.177Z,12.90
2017-08-10T03:57:55.633Z,13.83
2017-08-10T04:00:23.063Z,11.60
2017-08-10T04:02:50.510Z,10.60
2017-08-10T04:05:18.692Z,10.77
2017-08-10T04:07:46.903Z,10.20
2017-08-10T04:10:14.341Z,10.10
2017-08-10T04:12:41.810Z,11.17
2017-08-10T04:15:09.234Z,12.00
2017-08-10T04:17:36.709Z,11.70
2017-08-10T04:20:04.132Z,11.10
2017-08-10T04:22:32.329Z,11.40
2017-08-10T04:24:59.778Z,12.03
2017-08-10T04:27:27.231Z,11.97
2017-08-10T04:29:54.709Z,12.43
2017-08-10T04:32:22.148Z,12.43
2017-08-10T04:34:49.587Z,12.30
2017-08-10T04:37:17.007Z,11.77
2017-08-10T04:39:44.447Z,12.70
2017-08-10T04:42:11.864Z,12.00
2017-08-10T04:44:39.317Z,11.27
2017-08-10T04:47:06.750Z,12.40
2017-08-10T04:49:34.185Z,12.00
2017-08-10T04:52:01.623Z,13.80
2017-08-10T04:54:29.050Z,13.23
2017-08-10T04:56:56.496Z,14.13
2017-08-10T04:59:23.936Z,13.73
2017-08-10T05:01:52.167Z,14.70
2017-08-10T05:04:19.599Z,15.20
2017-08-10T05:06:47.074Z,14.77
2017-08-10T05:09:14.531Z,15.27
2017-08-10T05:11:41.944Z,15.50
2017-08-10T05:14:09.405Z,16.43
2017-08-10T05:16:36.866Z,17.13
2017-08-10T05:19:04.325Z,17.03
2017-08-10T05:21:32.504Z,15.30
2017-08-10T05:24:00.005Z,15.83
2017-08-10T05:26:27.444Z,15.60
2017-08-10T05:28:54.885Z,15.37
2017-08-10T05:31:22.316Z,15.30
2017-08-10T05:33:49.768Z,14.17
2017-08-10T05:36:17.204Z,14.93
2017-08-10T05:38:45.425Z,14.80
2017-08-10T05:41:12.890Z,15.50
2017-08-10T05:43:40.316Z,15.40
2017-08-10T05:46:07.769Z,16.00
2017-08-10T05:48:35.206Z,16.50
2017-08-10T05:51:03.408Z,16.40
2017-08-10T05:53:30.864Z,16.63
2017-08-10T05:55:58.291Z,16.67
2017-08-10T05:58:25.712Z,18.17
2017-08-10T06:00:53.225Z,17.63
2017-08-10T06:03:21.415Z,18.20
2017-08-10T06:05:48.864Z,17.50
2017-08-10T06:08:16.294Z,18.00
2017-08-10T06:10:44.532Z,16.83
2017-08-10T06:13:11.970Z,18.10
2017-08-10T06:15:39.413Z,19.63
2017-08-10T06:18:06.856Z,19.77
2017-08-10T06:20:34.319Z,19.50
2017-08-10T06:23:01.777Z,19.07
2017-08-10T06:25:29.964Z,19.70
2017-08-10T06:27:57.409Z,20.27
2017-08-10T06:30:31.210Z,19.80
2017-08-10T06:32:58.685Z,18.87
2017-08-10T06:35:26.097Z,20.03
2017-08-10T06:37:54.312Z,19.13
2017-08-10T06:40:21.760Z,19.37
2017-08-10T06:42:49.186Z,19.30
2017-08-10T06:45:17.410Z,19.47
2017-08-10T06:47:44.839Z,20.20
2017-08-10T06:50:12.273Z,20.63
2017-08-10T06:52:40.486Z,20.10
2017-08-10T06:55:07.936Z,21.40
2017-08-10T06:57:35.385Z,21.27
2017-08-10T07:00:02.833Z,20.73
2017-08-10T07:02:30.298Z,21.80
2017-08-10T07:04:57.767Z,22.50
2017-08-10T07:07:25.183Z,20.87
2017-08-10T07:09:53.398Z,19.63
2017-08-10T07:12:20.866Z,20.90
2017-08-10T07:14:48.389Z,21.30
2017-08-10T07:17:15.809Z,22.50
2017-08-10T07:19:43.268Z,24.10
2017-08-10T07:22:10.714Z,22.47
2017-08-10T07:24:38.231Z,23.20
2017-08-10T07:27:06.442Z,23.50
2017-08-10T07:29:33.899Z,24.40
2017-08-10T07:32:01.730Z,23.67
2017-08-10T07:34:29.197Z,23.97
2017-08-10T07:36:56.632Z,23.77
2017-08-10T07:39:24.227Z,25.40
2017-08-10T07:41:51.768Z,24.93
2017-08-10T07:44:19.215Z,26.13
2017-08-10T07:46:47.466Z,24.47
2017-08-10T07:49:14.904Z,24.40
2017-08-10T07:51:42.340Z,24.40
2017-08-10T07:54:09.809Z,25.13
2017-08-10T07:56:37.263Z,24.50
2017-08-10T07:59:36.101Z,23.60
2017-08-10T08:02:03.537Z,26.13
2017-08-10T08:04:31.041Z,24.40
2017-08-10T08:06:58.463Z,24.07
2017-08-10T08:09:25.904Z,25.70
2017-08-10T08:11:54.116Z,25.13
2017-08-10T08:14:21.610Z,24.93
2017-08-10T08:16:49.042Z,26.73
2017-08-10T08:19:16.475Z,24.40
2017-08-10T08:21:43.927Z,26.10
2017-08-10T08:24:11.410Z,26.67
2017-08-10T08:26:39.055Z,28.10
2017-08-10T08:29:06.536Z,26.10
2017-08-10T08:31:33.989Z,26.03
2017-08-10T08:34:01.442Z,27.47
2017-08-10T08:36:28.871Z,29.30
2017-08-10T08:38:56.323Z,30.13
2017-08-10T08:41:23.732Z,29.30
2017-08-10T08:43:51.185Z,29.63
2017-08-10T08:46:18.624Z,28.27
2017-08-10T08:48:46.059Z,27.70
2017-08-10T08:51:13.503Z,27.47
2017-08-10T08:53:41.617Z,26.77
2017-08-10T08:56:09.062Z,25.43
2017-08-10T08:58:36.493Z,28.67
2017-08-10T09:01:03.921Z,26.10
2017-08-10T09:03:31.353Z,27.30
2017-08-10T09:05:58.812Z,25.47
2017-08-10T09:08:26.224Z,30.37
2017-08-10T09:10:53.672Z,23.00
2017-08-10T09:13:21.110Z,27.67
2017-08-10T09:15:48.516Z,29.27
2017-08-10T09:18:15.974Z,27.93
2017-08-10T09:20:43.408Z,30.10
2017-08-10T09:23:10.886Z,25.97
2017-08-10T09:25:38.344Z,30.10
2017-08-10T09:28:05.745Z,29.37
2017-08-10T09:30:33.168Z,29.00
2017-08-10T09:33:00.611Z,31.27
2017-08-10T09:35:28.047Z,28.20
2017-08-10T09:37:55.477Z,25.83
2017-08-10T09:40:22.914Z,23.97
2017-08-10T09:42:50.339Z,26.30
2017-08-10T09:45:17.774Z,25.37
2017-08-10T09:47:45.213Z,26.10
2017-08-10T09:50:12.620Z,24.23
2017-08-10T09:52:40.052Z,26.40
2017-08-10T09:55:07.497Z,25.90
2017-08-10T09:57:34.938Z,26.40
2017-08-10T10:00:02.395Z,37.27
2017-08-10T10:02:29.824Z,34.47
2017-08-10T10:04:57.272Z,28.00
2017-08-10T10:07:24.697Z,25.27
2017-08-10T10:09:52.132Z,26.07
2017-08-10T10:12:20.363Z,24.97
2017-08-10T10:14:47.768Z,27.00
2017-08-10T10:17:15.217Z,28.37
2017-08-10T10:19:42.664Z,27.47
2017-08-10T10:22:10.078Z,27.23
2017-08-10T10:24:37.504Z,26.17
2017-08-10T10:27:05.708Z,28.10
2017-08-10T10:29:33.164Z,28.43
2017-08-10T10:32:00.609Z,27.20
2017-08-10T10:34:28.035Z,24.37
2017-08-10T10:36:55.484Z,25.50
2017-08-10T10:39:22.889Z,25.80
2017-08-10T10:41:50.315Z,26.90
2017-08-10T10:44:17.851Z,25.70
2017-08-10T10:46:46.054Z,26.27
2017-08-10T10:49:13.484Z,24.13
2017-08-10T10:51:40.920Z,29.60
2017-08-10T10:54:09.114Z,26.50
2017-08-10T10:56:36.565Z,30.50
2017-08-10T10:59:04.758Z,32.07
2017-08-10T11:01:32.223Z,29.60
2017-08-10T11:03:59.659Z,38.40
2017-08-10T11:06:27.090Z,26.90
2017-08-10T11:08:54.527Z,31.97
2017-08-10T11:11:21.968Z,28.97
2017-08-10T11:13:49.380Z,29.90
2017-08-10T11:16:16.812Z,29.93
2017-08-10T11:18:45.024Z,29.83
2017-08-10T11:21:12.444Z,30.20
2017-08-10T11:23:41.056Z,30.43
2017-08-10T11:26:08.503Z,30.13
2017-08-10T11:28:35.941Z,29.70
2017-08-10T11:31:04.156Z,29.53
2017-08-10T11:33:31.641Z,30.07
2017-08-10T11:35:59.082Z,30.43
2017-08-10T11:38:26.512Z,28.93
2017-08-10T11:40:53.981Z,29.90
2017-08-10T11:43:21.417Z,28.60
2017-08-10T11:45:48.855Z,29.97
2017-08-10T11:48:16.376Z,32.40
2017-08-10T11:50:44.579Z,31.90
2017-08-10T11:53:12.008Z,28.90
2017-08-10T11:55:39.465Z,30.83
2017-08-10T11:58:06.889Z,28.10
2017-08-10T12:00:35.079Z,31.67
2017-08-10T12:03:02.545Z,30.83
2017-08-10T12:05:30.726Z,36.30
2017-08-10T12:07:58.239Z,29.90
2017-08-10T12:10:25.669Z,46.97
2017-08-10T12:12:53.106Z,32.03
2017-08-10T12:15:20.521Z,27.80
2017-08-10T12:17:48.756Z,27.47
2017-08-10T12:20:16.204Z,25.90
2017-08-10T12:22:43.641Z,27.73
2017-08-10T12:25:11.103Z,38.03
2017-08-10T12:27:38.534Z,29.53
2017-08-10T12:30:05.971Z,28.00
2017-08-10T12:32:34.175Z,27.33
2017-08-10T12:35:01.601Z,31.33
2017-08-10T12:37:29.797Z,24.83
2017-08-10T12:39:57.298Z,28.93
2017-08-10T12:42:24.732Z,38.70
2017-08-10T12:44:52.162Z,32.27
2017-08-10T12:47:19.595Z,29.10
2017-08-10T12:49:47.817Z,27.53
2017-08-10T12:52:15.249Z,23.07
2017-08-10T12:54:42.764Z,20.43
2017-08-10T12:57:10.252Z,19.50
2017-08-10T12:59:37.673Z,20.03
2017-08-10T13:02:05.104Z,18.23
2017-08-10T13:04:32.534Z,18.00
2017-08-10T13:06:59.967Z,16.90
2017-08-10T13:09:28.167Z,17.17
2017-08-10T13:11:55.608Z,18.33
2017-08-10T13:14:23.035Z,20.00
2017-08-10T13:16:50.472Z,20.33
2017-08-10T13:19:17.889Z,19.70
2017-08-10T13:21:45.323Z,19.77
2017-08-10T13:24:13.634Z,23.63
2017-08-10T13:26:41.070Z,21.30
2017-08-10T13:29:08.545Z,20.13
2017-08-10T13:31:35.984Z,18.90
2017-08-10T13:34:03.428Z,18.93
2017-08-10T13:36:30.884Z,18.43
2017-08-10T13:38:58.319Z,18.73
2017-08-10T13:41:25.745Z,19.30
2017-08-10T13:43:53.176Z,20.10
2017-08-10T13:46:20.612Z,19.30
2017-08-10T13:48:48.065Z,18.63
2017-08-10T13:51:15.500Z,17.83
2017-08-10T13:53:43.697Z,18.00
2017-08-10T13:56:11.156Z,17.00
2017-08-10T13:58:38.630Z,17.80
2017-08-10T14:01:06.137Z,17.63
2017-08-10T14:03:33.564Z,18.33
2017-08-10T14:06:00.989Z,17.97
2017-08-10T14:08:28.433Z,18.30
2017-08-10T14:10:55.900Z,17.00
2017-08-10T14:13:23.324Z,17.17
2017-08-10T14:15:51.548Z,16.97
2017-08-10T14:18:18.987Z,17.00
2017-08-10T14:20:46.433Z,15.87
2017-08-10T14:23:13.864Z,16.80
2017-08-10T14:25:41.338Z,16.80
2017-08-10T14:28:08.752Z,16.23
2017-08-10T14:30:36.184Z,15.60
2017-08-10T14:33:03.612Z,15.60
2017-08-10T14:35:31.086Z,14.57
2017-08-10T14:37:58.705Z,13.87
2017-08-10T14:40:26.146Z,14.70
2017-08-10T14:42:53.769Z,15.20
2017-08-10T14:45:21.192Z,15.53
2017-08-10T14:47:48.610Z,14.53
2017-08-10T14:50:16.856Z,14.80
2017-08-10T14:52:44.292Z,14.90
2017-08-10T14:55:11.784Z,16.00
2017-08-10T14:57:39.221Z,14.77
2017-08-10T15:00:06.665Z,13.90
2017-08-10T15:02:34.133Z,14.70
2017-08-10T15:05:01.615Z,15.13
2017-08-10T15:07:29.092Z,15.10
2017-08-10T15:09:56.540Z,14.10
2017-08-10T15:12:23.975Z,13.40
2017-08-10T15:14:51.458Z,14.30
2017-08-10T15:17:18.959Z,12.93
2017-08-10T15:19:48.013Z,14.73
2017-08-10T15:22:15.432Z,13.60
2017-08-10T15:24:42.867Z,13.20
2017-08-10T15:27:10.333Z,13.97
2017-08-10T15:29:37.781Z,12.83
2017-08-10T15:32:05.207Z,12.20
2017-08-10T15:34:32.720Z,12.70
2017-08-10T15:37:00.143Z,12.77
2017-08-10T15:39:27.566Z,13.00
2017-08-10T15:41:55.875Z,10.90
2017-08-10T15:44:23.294Z,10.27
2017-08-10T15:46:50.757Z,10.90
2017-08-10T15:49:18.981Z,11.40
2017-08-10T15:51:46.400Z,10.67
2017-08-10T15:54:13.856Z,11.50
2017-08-10T15:56:41.281Z,11.23
2017-08-10T15:59:09.532Z,10.23
2017-08-10T16:01:37.069Z,11.33
2017-08-10T16:04:04.512Z,10.50
2017-08-10T16:06:31.922Z,9.83
2017-08-10T16:08:59.371Z,10.63
2017-08-10T16:11:26.849Z,11.20
2017-08-10T16:13:54.390Z,10.60
2017-08-10T16:16:21.826Z,11.10
2017-08-10T16:18:49.249Z,12.20
2017-08-10T16:21:16.719Z,10.67
2017-08-10T16:23:44.123Z,10.50
2017-08-10T16:26:12.313Z,12.07
2017-08-10T16:28:39.743Z,12.33
2017-08-10T16:31:07.184Z,12.13
2017-08-10T16:33:34.617Z,12.63
2017-08-10T16:36:02.081Z,12.50
2017-08-10T16:38:29.501Z,13.23
2017-08-10T16:40:57.806Z,13.70
2017-08-10T16:43:25.241Z,13.67
2017-08-10T16:45:52.673Z,12.47
2017-08-10T16:48:20.857Z,12.13
2017-08-10T16:50:48.284Z,12.50
2017-08-10T16:53:15.735Z,12.03
2017-08-10T16:55:43.168Z,10.90
2017-08-10T16:58:10.607Z,10.97
2017-08-10T17:00:38.089Z,11.30
2017-08-10T17:03:05.565Z,11.80
2017-08-10T17:05:33.014Z,11.63
2017-08-10T17:08:00.430Z,10.47
2017-08-10T17:10:28.643Z,11.13
2017-08-10T17:12:56.080Z,11.30
2017-08-10T17:15:24.301Z,11.23
2017-08-10T17:17:51.737Z,10.57
2017-08-10T17:20:19.152Z,10.70
2017-08-10T17:22:46.579Z,11.50
2017-08-10T17:25:14.012Z,10.67
2017-08-10T17:27:41.696Z,11.20
2017-08-10T17:30:09.125Z,10.03
2017-08-10T17:32:36.577Z,10.90
2017-08-10T17:35:04.014Z,10.93
2017-08-10T17:37:31.440Z,11.67
2017-08-10T17:39:58.866Z,11.33
2017-08-10T17:42:26.295Z,11.37
2017-08-10T17:44:53.774Z,10.30
2017-08-10T17:47:21.198Z,10.90
2017-08-10T17:49:48.625Z,10.97
2017-08-10T17:52:16.828Z,11.57
2017-08-10T17:54:44.276Z,10.87
2017-08-10T17:57:12.460Z,10.13
2017-08-10T17:59:39.906Z,10.70
2017-08-10T18:02:07.332Z,11.00
2017-08-10T18:04:35.554Z,10.37
2017-08-10T18:07:02.992Z,11.53
2017-08-10T18:09:31.203Z,11.37
2017-08-10T18:11:58.656Z,11.03
2017-08-10T18:14:26.154Z,11.03
2017-08-10T18:16:53.577Z,11.27
2017-08-10T18:19:21.019Z,12.10
2017-08-10T18:21:48.478Z,12.07
2017-08-10T18:24:16.059Z,12.60
2017-08-10T18:26:43.492Z,12.80
2017-08-10T18:29:10.941Z,13.60
2017-08-10T18:31:38.395Z,14.30
2017-08-10T18:34:06.294Z,15.10
2017-08-10T18:36:33.728Z,15.93
2017-08-10T18:39:01.168Z,14.90
2017-08-10T18:41:28.616Z,16.53
2017-08-10T18:43:56.040Z,17.20
2017-08-10T18:46:24.258Z,16.23
2017-08-10T18:48:51.686Z,16.03
2017-08-10T18:51:19.110Z,16.63
2017-08-10T18:53:46.547Z,17.00
2017-08-10T18:56:13.976Z,16.47
2017-08-10T18:58:41.422Z,15.77
2017-08-10T19:01:08.846Z,15.90
2017-08-10T19:03:36.283Z,14.37
2017-08-10T19:06:03.721Z,14.70
2017-08-10T19:08:31.159Z,13.97
2017-08-10T19:10:58.588Z,14.13
2017-08-10T19:13:26.037Z,14.60
2017-08-10T19:15:54.243Z,14.57
2017-08-10T19:18:21.742Z,14.97
2017-08-10T19:20:49.164Z,13.23
2017-08-10T19:23:16.604Z,13.80
2017-08-10T19:25:44.028Z,13.60
2017-08-10T19:28:11.507Z,13.30
2017-08-10T19:30:39.676Z,14.60
2017-08-10T19:33:07.107Z,14.57
2017-08-10T19:35:34.558Z,14.57
2017-08-10T19:38:01.991Z,14.47
2017-08-10T19:40:29.425Z,12.53
2017-08-10T19:42:56.881Z,15.03
2017-08-10T19:45:25.155Z,14.80
2017-08-10T19:47:52.595Z,14.80
2017-08-10T19:50:20.038Z,15.30
2017-08-10T19:52:48.236Z,15.53
2017-08-10T19:55:15.753Z,15.40
2017-08-10T19:57:43.945Z,15.03
2017-08-10T20:00:11.408Z,15.10
2017-08-10T20:02:38.836Z,14.90
2017-08-10T20:05:06.268Z,15.03
2017-08-10T20:07:34.483Z,14.00
2017-08-10T20:10:01.935Z,14.00
2017-08-10T20:12:29.343Z,14.07
2017-08-10T20:14:56.785Z,14.00
2017-08-10T20:17:24.241Z,13.60
2017-08-10T20:19:51.676Z,13.93
2017-08-10T20:22:19.137Z,14.10
2017-08-10T20:24:47.349Z,13.00
2017-08-10T20:27:14.807Z,13.03
2017-08-10T20:29:42.241Z,14.20
2017-08-10T20:32:10.446Z,12.70
2017-08-10T20:34:37.910Z,11.30
2017-08-10T20:37:05.336Z,12.07
2017-08-10T20:39:32.760Z,12.60
2017-08-10T20:42:00.193Z,13.23
2017-08-10T20:44:27.614Z,13.57
2017-08-10T20:46:55.087Z,13.33
2017-08-10T20:49:22.524Z,13.63
2017-08-10T20:51:49.948Z,13.60
2017-08-10T20:54:17.399Z,13.90
2017-08-10T20:56:44.824Z,13.40
2017-08-10T20:59:12.309Z,13.30
2017-08-10T21:01:39.737Z,12.93
2017-08-10T21:04:07.281Z,11.10
2017-08-10T21:06:34.737Z,12.50
2017-08-10T21:09:02.206Z,12.77
2017-08-10T21:11:29.693Z,11.40
2017-08-10T21:13:57.116Z,12.20
2017-08-10T21:16:24.574Z,12.20
2017-08-10T21:18:52.010Z,12.20
2017-08-10T21:21:19.459Z,11.50
2017-08-10T21:23:46.890Z,11.40
2017-08-10T21:26:15.110Z,11.77
2017-08-10T21:28:42.561Z,10.80
2017-08-10T21:31:10.021Z,10.40
2017-08-10T21:33:37.459Z,10.13
2017-08-10T21:36:04.905Z,9.57
2017-08-10T21:38:32.331Z,8.03
2017-08-10T21:41:00.550Z,7.67
2017-08-10T21:43:28.003Z,7.03
2017-08-10T21:45:55.432Z,7.20
2017-08-10T21:48:22.839Z,7.23
2017-08-10T21:50:50.284Z,6.67
2017-08-10T21:53:17.824Z,6.60
2017-08-10T21:55:45.257Z,6.10
2017-08-10T21:58:13.453Z,6.90
2017-08-10T22:00:40.881Z,5.77
2017-08-10T22:03:08.311Z,6.43
2017-08-10T22:05:35.728Z,5.90
2017-08-10T22:08:03.184Z,6.00
2017-08-10T22:10:30.625Z,6.00
2017-08-10T22:12:58.050Z,6.80
2017-08-10T22:15:25.468Z,6.20
2017-08-10T22:17:52.906Z,6.20
2017-08-10T22:20:20.362Z,6.10
2017-08-10T22:22:47.793Z,6.70
2017-08-10T22:25:16.004Z,7.20
2017-08-10T22:27:43.520Z,6.37
2017-08-10T22:30:11.021Z,6.50
2017-08-10T22:32:38.467Z,6.70
2017-08-10T22:35:05.926Z,6.77
2017-08-10T22:37:33.336Z,6.87
2017-08-10T22:40:01.545Z,6.97
2017-08-10T22:42:28.961Z,7.43
2017-08-10T22:44:57.177Z,6.87
2017-08-10T22:47:24.605Z,7.13
2017-08-10T22:49:52.062Z,6.67
2017-08-10T22:52:19.495Z,7.43
2017-08-10T22:54:46.954Z,7.30
2017-08-10T22:57:14.360Z,6.77
2017-08-10T22:59:41.806Z,7.80
2017-08-10T23:02:09.232Z,7.30
2017-08-10T23:04:37.443Z,7.00
2017-08-10T23:07:04.917Z,6.73
2017-08-10T23:09:32.351Z,6.57
2017-08-10T23:11:59.828Z,6.47
2017-08-10T23:14:27.264Z,7.50
2017-08-10T23:16:54.696Z,7.27
2017-08-10T23:19:22.129Z,7.67
2017-08-10T23:21:49.584Z,6.93
2017-08-10T23:24:17.002Z,6.90
2017-08-10T23:26:44.432Z,6.90
2017-08-10T23:29:11.877Z,7.50
2017-08-10T23:31:40.100Z,7.37
2017-08-10T23:34:07.544Z,7.70
2017-08-10T23:36:35.003Z,7.20
2017-08-10T23:39:02.431Z,7.23
2017-08-10T23:41:29.868Z,7.93
2017-08-10T23:43:58.101Z,7.37
2017-08-10T23:46:25.513Z,7.47
2017-08-10T23:48:53.020Z,7.37
2017-08-10T23:51:20.433Z,7.20
2017-08-10T23:53:47.853Z,7.00
2017-08-10T23:56:16.062Z,7.27
2017-08-10T23:58:43.653Z,6.83
